Atarrabia, Spain
Current Conditions -  °F | °C
As of 3:30 PM on Friday 24 Oct 2014 (Local Time) from LEPP Reporting Station
Clear Clear  
Wind Chill: 77°   Ceiling: Unl
Heat Index: 78°   Visibility: 6mi
Dew Point: 45°   Wind: 0mph
Humidity: 32%   Direction: NA
Pressure: 30.09"   Gusts: NA
Location:  42.83°N, 1.61°W
Report Text: LEPP 241330Z 00000KT CAVOK 25/07 Q1019
Loading
Personal Weather Stations






























Interactive Weather Map
Tropical Storm Tracking
New forecast layout! Learn more

10-Day Weather Forecast

Advertisements
Track Severe Weather on mobile